Cherry Point Marine Corps Ai, North Carolina
Current Conditions -  °F | °C
As of 12:25 PM on Wednesday 26 Nov 2014 (Local Time) from KNKT Reporting Station
Moderate Rain Moderate Rain  
Wind Chill:   Ceiling: 1000
Heat Index:   Visibility: 6mi
Dew Point:   Wind: 16mph
Humidity: 90%   Direction: 340°NNW
Pressure: 29.78"   Gusts: NA
Location:  34.8973°N, 76.9091°W
Report Text: KNKT 261725Z 34014KT 6SM RA BR OVC010 09/08 A2978 RMK AO2 CIG 007V014 P0000 T00940078 $
Loading
Personal Weather Stations






























Interactive Weather Map New forecast layout! Learn more

10-Day Weather Forecast

Advertisements
Track Severe Weather on mobile